Time;durP1;ratioP1;P1;durP2;ratioP2;P2;SDS_P1;SDS_P2;PMS_P1;PMS_P2;Temp;Humidity;BMP_temperature;BMP_pressure;BME280_temperature;BME280_humidity;BME280_pressure;Samples;Min_cycle;Max_cycle;Signal;HPM_P1;HPM_P2
2022/09/05 00:02:43;;;;;;;;;;;20.60;99.90;;;;;;4989808;28;20824;-69
2022/09/05 00:05:21;;;;;;;;;;;20.60;99.90;;;;;;4990724;28;20746;-69
2022/09/05 00:07:53;;;;;;;;;;;20.60;99.90;;;;;;4989161;28;25143;-69
2022/09/05 00:10:31;;;;;;;;;;;20.50;99.90;;;;;;4985997;28;20215;-69
2022/09/05 00:13:05;;;;;;;;;;;20.60;99.90;;;;;;4988793;28;20335;-69
2022/09/05 00:15:39;;;;;;;;;;;20.70;99.90;;;;;;4984636;28;21051;-69
2022/09/05 00:18:15;;;;;;;;;;;20.70;99.90;;;;;;4982851;28;20106;-67
2022/09/05 00:21:10;;;;;;;;;;;20.70;99.90;;;;;;4989650;28;20139;-71
2022/09/05 00:24:05;;;;;;;;;;;20.60;99.90;;;;;;4991412;28;20232;-71
2022/09/05 00:26:57;;;;;;;;;;;20.60;99.90;;;;;;4985226;28;20211;-71
2022/09/05 00:29:46;;;;;;;;;;;20.60;99.90;;;;;;4986184;28;20215;-71
2022/09/05 00:32:39;;;;;;;;;;;20.50;99.90;;;;;;4974609;28;20311;-71
2022/09/05 00:35:13;;;;;;;;;;;20.40;99.90;;;;;;4984663;28;20217;-71
2022/09/05 00:37:44;;;;;;;;;;;20.30;99.90;;;;;;4985967;28;20244;-71
2022/09/05 00:40:25;;;;;;;;;;;20.20;99.90;;;;;;4987026;28;20203;-70
2022/09/05 00:42:55;;;;;;;;;;;20.20;99.90;;;;;;4984188;28;20106;-71
2022/09/05 00:45:26;;;;;;;;;;;20.30;99.90;;;;;;4982183;28;20521;-71
2022/09/05 00:47:59;;;;;;;;;;;20.30;99.90;;;;;;4987066;28;20612;-71
2022/09/05 00:50:30;;;;;;;;;;;20.20;99.90;;;;;;4985771;28;25086;-70
2022/09/05 00:53:01;;;;;;;;;;;20.00;99.90;;;;;;4986817;28;20068;-71
2022/09/05 00:55:39;;;;;;;;;;;19.80;99.90;;;;;;4988537;28;20228;-71
2022/09/05 00:58:21;;;;;;;;;;;19.70;99.90;;;;;;4991989;28;20212;-70
2022/09/05 01:00:52;;;;;;;;;;;19.70;99.90;;;;;;4986575;28;20228;-70
2022/09/05 01:03:26;;;;;;;;;;;19.50;99.90;;;;;;4984632;28;20223;-70
2022/09/05 01:06:03;;;;;;;;;;;19.30;99.90;;;;;;4986833;28;20196;-70
2022/09/05 01:08:46;;;;;;;;;;;19.30;99.90;;;;;;4987831;28;20230;-70
2022/09/05 01:11:19;;;;;;;;;;;19.30;99.90;;;;;;4985742;28;20757;-69
2022/09/05 01:13:50;;;;;;;;;;;19.20;99.90;;;;;;4981809;28;20661;-69
2022/09/05 01:16:21;;;;;;;;;;;19.20;99.90;;;;;;4989872;28;20351;-68
2022/09/05 01:18:53;;;;;;;;;;;19.10;99.90;;;;;;4987166;28;20202;-70
2022/09/05 01:21:39;;;;;;;;;;;19.10;99.90;;;;;;4990640;28;20213;-70
2022/09/05 01:24:20;;;;;;;;;;;19.20;99.90;;;;;;4982734;28;20196;-70
2022/09/05 01:27:09;;;;;;;;;;;19.10;99.90;;;;;;4983892;28;20199;-70
2022/09/05 01:29:43;;;;;;;;;;;18.90;99.90;;;;;;4986073;28;20234;-71
2022/09/05 01:32:20;;;;;;;;;;;18.70;99.90;;;;;;4985990;28;20161;-71
2022/09/05 01:34:55;;;;;;;;;;;18.70;99.90;;;;;;4983847;28;25090;-71
2022/09/05 01:37:27;;;;;;;;;;;18.70;99.90;;;;;;4994353;28;20099;-71
2022/09/05 01:40:07;;;;;;;;;;;18.70;99.90;;;;;;4983497;28;20310;-71
2022/09/05 01:42:47;;;;;;;;;;;18.60;99.90;;;;;;4980766;28;20899;-69
2022/09/05 01:45:18;;;;;;;;;;;18.60;99.90;;;;;;4985264;28;20197;-70
2022/09/05 01:47:49;;;;;;;;;;;18.70;99.90;;;;;;4983862;28;20205;-71
2022/09/05 01:50:27;;;;;;;;;;;18.80;99.90;;;;;;4989631;28;20200;-71
2022/09/05 01:53:01;;;;;;;;;;;19.00;99.90;;;;;;4989798;28;20192;-70
2022/09/05 01:55:38;;;;;;;;;;;19.10;99.90;;;;;;4986022;28;20650;-70
2022/09/05 01:58:31;;;;;;;;;;;19.10;99.90;;;;;;4983721;28;20115;-71
2022/09/05 02:01:06;;;;;;;;;;;19.30;99.90;;;;;;4984466;28;20067;-71
2022/09/05 02:03:59;;;;;;;;;;;19.20;99.90;;;;;;4996921;28;20764;-71
2022/09/05 02:06:35;;;;;;;;;;;19.20;99.90;;;;;;4983665;28;20211;-71
2022/09/05 02:09:14;;;;;;;;;;;19.20;99.90;;;;;;4982166;28;20232;-71
2022/09/05 02:11:45;;;;;;;;;;;19.40;99.90;;;;;;4983587;28;20714;-70
2022/09/05 02:14:29;;;;;;;;;;;19.40;99.90;;;;;;4983045;28;20323;-71
2022/09/05 02:17:14;;;;;;;;;;;19.40;99.90;;;;;;4983578;28;20203;-71
2022/09/05 02:20:07;;;;;;;;;;;19.30;99.90;;;;;;4984860;28;20216;-70
2022/09/05 02:22:41;;;;;;;;;;;19.50;99.90;;;;;;4983726;28;20234;-69
2022/09/05 02:25:11;;;;;;;;;;;19.50;99.90;;;;;;4986273;28;21711;-70
2022/09/05 02:28:01;;;;;;;;;;;19.40;99.90;;;;;;4983656;28;20069;-70
2022/09/05 02:30:34;;;;;;;;;;;19.30;99.90;;;;;;4986963;28;20195;-70
2022/09/05 02:33:10;;;;;;;;;;;19.00;99.90;;;;;;4991348;28;20226;-70
2022/09/05 02:35:42;;;;;;;;;;;19.00;99.90;;;;;;4984977;28;20227;-70
2022/09/05 02:38:13;;;;;;;;;;;19.20;99.90;;;;;;4987082;28;20188;-69
2022/09/05 02:41:04;;;;;;;;;;;19.20;99.90;;;;;;4982853;28;20203;-69
2022/09/05 02:43:57;;;;;;;;;;;19.30;99.90;;;;;;4982635;28;21239;-70
2022/09/05 02:46:50;;;;;;;;;;;19.20;99.90;;;;;;4985238;28;20217;-70
2022/09/05 02:49:25;;;;;;;;;;;19.10;99.90;;;;;;4989690;28;20206;-70
2022/09/05 02:52:15;;;;;;;;;;;19.10;99.90;;;;;;4983045;28;20280;-69
2022/09/05 02:55:08;;;;;;;;;;;19.10;99.90;;;;;;4985361;28;20200;-70
2022/09/05 02:58:06;;;;;;;;;;;19.30;99.90;;;;;;4989958;28;20258;-72
2022/09/05 03:00:38;;;;;;;;;;;19.30;99.90;;;;;;4985562;28;20265;-72
2022/09/05 03:03:17;;;;;;;;;;;19.20;99.90;;;;;;4984905;28;20601;-72
2022/09/05 03:05:51;;;;;;;;;;;19.20;99.90;;;;;;4990667;28;20258;-71
2022/09/05 03:08:23;;;;;;;;;;;19.20;99.90;;;;;;4983657;28;20203;-71
2022/09/05 03:11:03;;;;;;;;;;;19.00;99.90;;;;;;4981619;28;20192;-72
2022/09/05 03:13:42;;;;;;;;;;;19.00;99.90;;;;;;4984756;28;20212;-72
2022/09/05 03:16:37;;;;;;;;;;;19.00;99.90;;;;;;5026253;23;20172;-65
2022/09/05 03:19:40;;;;;;;;;;;19.10;99.90;;;;;;5023986;28;20257;-64
2022/09/05 03:22:32;;;;;;;;;;;19.10;99.90;;;;;;5024454;28;20244;-64
2022/09/05 03:25:16;;;;;;;;;;;19.20;99.90;;;;;;5022704;28;20197;-64
2022/09/05 03:28:02;;;;;;;;;;;19.30;99.90;;;;;;5019205;28;20353;-65
2022/09/05 03:30:39;;;;;;;;;;;19.30;99.90;;;;;;5027303;28;20582;-64
2022/09/05 03:33:21;;;;;;;;;;;19.30;99.90;;;;;;5020980;28;20254;-63
2022/09/05 03:36:19;;;;;;;;;;;19.30;99.90;;;;;;5022782;28;20686;-65
2022/09/05 03:39:14;;;;;;;;;;;19.50;99.90;;;;;;5019173;28;20199;-65
2022/09/05 03:41:57;;;;;;;;;;;19.50;99.90;;;;;;4998394;28;20237;-65
2022/09/05 03:44:33;;;;;;;;;;;19.60;99.90;;;;;;5025015;28;20178;-64
2022/09/05 03:47:11;;;;;;;;;;;19.70;99.90;;;;;;5025910;28;20212;-65
2022/09/05 03:49:58;;;;;;;;;;;19.80;99.90;;;;;;5030253;28;20260;-64
2022/09/05 03:52:56;;;;;;;;;;;19.80;99.90;;;;;;5028083;28;20320;-64
2022/09/05 03:55:53;;;;;;;;;;;19.90;99.90;;;;;;5027526;28;20406;-65
2022/09/05 03:58:49;;;;;;;;;;;19.90;99.90;;;;;;5028646;28;20390;-64
2022/09/05 04:01:34;;;;;;;;;;;19.90;99.90;;;;;;5027373;28;20225;-65
2022/09/05 04:04:24;;;;;;;;;;;20.00;99.90;;;;;;5024827;28;25108;-65
2022/09/05 04:07:18;;;;;;;;;;;20.00;99.90;;;;;;5027401;28;20068;-64
2022/09/05 04:10:07;;;;;;;;;;;20.00;99.90;;;;;;5025880;28;20209;-64
2022/09/05 04:12:38;;;;;;;;;;;20.00;99.90;;;;;;5026625;28;20194;-65
2022/09/05 04:15:13;;;;;;;;;;;20.00;99.90;;;;;;5024728;28;20218;-67
2022/09/05 04:17:43;;;;;;;;;;;20.00;99.90;;;;;;5018989;28;20257;-64
2022/09/05 04:20:13;;;;;;;;;;;20.00;99.90;;;;;;5018416;28;20088;-64
2022/09/05 04:22:59;;;;;;;;;;;20.00;99.90;;;;;;5020381;28;20213;-67
2022/09/05 04:25:34;;;;;;;;;;;20.10;99.90;;;;;;5017699;28;20103;-65
2022/09/05 04:28:09;;;;;;;;;;;20.10;99.90;;;;;;5018062;28;20312;-64
2022/09/05 04:30:43;;;;;;;;;;;20.10;99.90;;;;;;5018269;28;20900;-66
2022/09/05 04:33:17;;;;;;;;;;;19.90;99.90;;;;;;5014951;28;20451;-67
2022/09/05 04:35:52;;;;;;;;;;;19.70;99.90;;;;;;5020198;28;20391;-65
2022/09/05 04:38:35;;;;;;;;;;;19.50;99.90;;;;;;5016121;28;25079;-64
2022/09/05 04:41:07;;;;;;;;;;;19.50;99.90;;;;;;5015778;28;20945;-65
2022/09/05 04:43:37;;;;;;;;;;;19.50;99.90;;;;;;5018552;28;20619;-65
2022/09/05 04:46:10;;;;;;;;;;;19.50;99.90;;;;;;5018620;28;20118;-65
2022/09/05 04:48:43;;;;;;;;;;;19.50;99.90;;;;;;5018301;28;20755;-65
2022/09/05 04:51:26;;;;;;;;;;;19.50;99.90;;;;;;5013923;28;20153;-66
2022/09/05 04:54:09;;;;;;;;;;;19.50;99.90;;;;;;5015961;28;20099;-66
2022/09/05 04:56:40;;;;;;;;;;;19.50;99.90;;;;;;5014324;28;20319;-67
2022/09/05 04:59:15;;;;;;;;;;;19.30;99.90;;;;;;5018449;28;20410;-65
2022/09/05 05:02:10;;;;;;;;;;;19.10;99.90;;;;;;5015885;28;20262;-64
2022/09/05 05:04:59;;;;;;;;;;;19.10;99.90;;;;;;5014987;28;25068;-66
2022/09/05 05:07:51;;;;;;;;;;;19.20;99.90;;;;;;5016915;28;20509;-66
2022/09/05 05:10:23;;;;;;;;;;;19.30;99.90;;;;;;5016243;28;20213;-67
2022/09/05 05:13:15;;;;;;;;;;;19.30;99.90;;;;;;5020359;28;20194;-65
2022/09/05 05:16:05;;;;;;;;;;;19.40;99.90;;;;;;5014776;28;20157;-64
2022/09/05 05:18:58;;;;;;;;;;;19.40;99.90;;;;;;5018372;28;20304;-64
2022/09/05 05:21:33;;;;;;;;;;;19.20;99.90;;;;;;5016261;28;20200;-67
2022/09/05 05:24:08;;;;;;;;;;;19.10;99.90;;;;;;5016606;28;20169;-63
2022/09/05 05:26:40;;;;;;;;;;;18.80;99.90;;;;;;5017567;28;20074;-66
2022/09/05 05:29:10;;;;;;;;;;;18.70;99.90;;;;;;5012131;28;21910;-65
2022/09/05 05:31:40;;;;;;;;;;;18.70;99.90;;;;;;5015751;28;25084;-66
2022/09/05 05:34:16;;;;;;;;;;;18.80;99.90;;;;;;5017936;28;20167;-65
2022/09/05 05:36:54;;;;;;;;;;;18.90;99.90;;;;;;5018988;28;20283;-64
2022/09/05 05:39:28;;;;;;;;;;;19.10;99.90;;;;;;5011897;28;20255;-65
2022/09/05 05:41:57;;;;;;;;;;;19.10;99.90;;;;;;5017170;28;20172;-65
2022/09/05 05:44:26;;;;;;;;;;;18.90;99.90;;;;;;5012966;28;25075;-65
2022/09/05 05:46:58;;;;;;;;;;;18.80;99.90;;;;;;5016814;28;20190;-65
2022/09/05 05:49:32;;;;;;;;;;;18.70;99.90;;;;;;5017591;28;20592;-67
2022/09/05 05:52:12;;;;;;;;;;;18.70;99.90;;;;;;5016752;28;20268;-64
2022/09/05 05:54:44;;;;;;;;;;;18.60;99.90;;;;;;5017124;28;20272;-64
2022/09/05 05:57:22;;;;;;;;;;;18.60;99.90;;;;;;5010835;28;20229;-65
2022/09/05 06:00:03;;;;;;;;;;;18.50;99.90;;;;;;5013414;28;20198;-65
2022/09/05 06:02:53;;;;;;;;;;;18.50;99.90;;;;;;5014630;28;20210;-64
2022/09/05 06:05:47;;;;;;;;;;;18.50;99.90;;;;;;5017084;28;20738;-64
2022/09/05 06:08:43;;;;;;;;;;;18.60;99.90;;;;;;5019139;28;20222;-62
2022/09/05 06:11:47;;;;;;;;;;;18.60;99.90;;;;;;5021698;28;20285;-63
2022/09/05 06:14:56;;;;;;;;;;;18.70;99.90;;;;;;5024417;28;20282;-63
2022/09/05 06:17:51;;;;;;;;;;;18.70;99.90;;;;;;5016170;28;20594;-65
2022/09/05 06:20:28;;;;;;;;;;;18.80;99.90;;;;;;5032495;28;20218;-61
2022/09/05 06:23:34;;;;;;;;;;;18.80;99.90;;;;;;5029301;28;20176;-61
2022/09/05 06:26:20;;;;;;;;;;;18.80;99.90;;;;;;5031290;28;20082;-61
2022/09/05 06:29:00;;;;;;;;;;;18.90;99.90;;;;;;5030785;28;20254;-63
2022/09/05 06:31:37;;;;;;;;;;;19.00;99.90;;;;;;5031560;28;20247;-61
2022/09/05 06:34:18;;;;;;;;;;;19.00;99.90;;;;;;5030569;28;20678;-61
2022/09/05 06:37:06;;;;;;;;;;;19.10;99.90;;;;;;5030541;28;20282;-63
2022/09/05 06:39:43;;;;;;;;;;;19.30;99.90;;;;;;5031491;28;20204;-65
2022/09/05 06:42:22;;;;;;;;;;;19.40;99.90;;;;;;5030627;28;20224;-61
2022/09/05 06:45:25;;;;;;;;;;;19.60;99.90;;;;;;5030579;28;20078;-63
2022/09/05 06:47:58;;;;;;;;;;;19.70;99.90;;;;;;5022049;28;20220;-61
2022/09/05 06:50:30;;;;;;;;;;;19.80;99.90;;;;;;5028044;28;20201;-62
2022/09/05 06:53:32;;;;;;;;;;;19.90;99.90;;;;;;5031305;28;20240;-63
2022/09/05 06:56:05;;;;;;;;;;;20.00;99.90;;;;;;5029385;28;20188;-61
2022/09/05 06:58:49;;;;;;;;;;;20.10;99.90;;;;;;5031202;28;20858;-61
2022/09/05 07:01:25;;;;;;;;;;;20.20;99.90;;;;;;5029808;28;20074;-64
2022/09/05 07:04:29;;;;;;;;;;;20.30;99.90;;;;;;5029062;28;21306;-63
2022/09/05 07:07:22;;;;;;;;;;;20.40;99.90;;;;;;5028538;28;20249;-62
2022/09/05 07:09:56;;;;;;;;;;;20.50;99.90;;;;;;5030460;28;20214;-61
2022/09/05 07:12:26;;;;;;;;;;;20.50;99.90;;;;;;5031137;28;20109;-61
2022/09/05 07:15:07;;;;;;;;;;;20.70;99.90;;;;;;5029921;28;20093;-61
2022/09/05 07:17:43;;;;;;;;;;;20.80;99.90;;;;;;5030985;28;20709;-61
2022/09/05 07:20:34;;;;;;;;;;;21.00;99.90;;;;;;5033687;28;20198;-61
2022/09/05 07:23:29;;;;;;;;;;;21.00;99.90;;;;;;5035281;28;20255;-61
2022/09/05 07:26:19;;;;;;;;;;;21.10;99.90;;;;;;5033038;28;20604;-61
2022/09/05 07:29:07;;;;;;;;;;;21.20;99.90;;;;;;5033885;28;20664;-62
2022/09/05 07:31:38;;;;;;;;;;;21.30;99.90;;;;;;5022400;28;20205;-61
2022/09/05 07:34:08;;;;;;;;;;;21.40;99.90;;;;;;5034259;28;20733;-61
2022/09/05 07:36:49;;;;;;;;;;;21.60;99.90;;;;;;5033958;28;20217;-61
2022/09/05 07:39:40;;;;;;;;;;;21.80;99.90;;;;;;5025496;28;20199;-66
2022/09/05 07:42:13;;;;;;;;;;;22.00;99.90;;;;;;5032974;28;20192;-61
2022/09/05 07:44:46;;;;;;;;;;;22.20;99.90;;;;;;5027011;28;20214;-63
2022/09/05 07:47:19;;;;;;;;;;;22.40;99.90;;;;;;5021543;28;20253;-64
2022/09/05 07:49:48;;;;;;;;;;;22.60;99.90;;;;;;5015210;28;20715;-61
2022/09/05 07:52:39;;;;;;;;;;;22.60;99.90;;;;;;5033420;28;20248;-61
2022/09/05 07:55:29;;;;;;;;;;;22.70;99.90;;;;;;5034494;28;20202;-62
2022/09/05 07:58:18;;;;;;;;;;;22.70;99.90;;;;;;5033233;28;20739;-62
2022/09/05 08:00:50;;;;;;;;;;;22.80;99.90;;;;;;5033795;28;20567;-61
2022/09/05 08:03:24;;;;;;;;;;;22.90;99.90;;;;;;5033192;28;20225;-61
2022/09/05 08:05:53;;;;;;;;;;;23.20;99.90;;;;;;5033128;28;20203;-61
2022/09/05 08:08:23;;;;;;;;;;;23.30;99.90;;;;;;5034043;28;20201;-64
2022/09/05 08:10:54;;;;;;;;;;;23.50;99.90;;;;;;5033087;28;20206;-62
2022/09/05 08:13:50;;;;;;;;;;;23.50;99.90;;;;;;5033211;28;20186;-61
2022/09/05 08:16:19;;;;;;;;;;;23.70;99.90;;;;;;5033308;28;20679;-62
2022/09/05 08:18:50;;;;;;;;;;;24.00;99.90;;;;;;5033166;28;20610;-62
2022/09/05 08:21:22;;;;;;;;;;;24.10;99.90;;;;;;5033389;28;20197;-65
2022/09/05 08:23:56;;;;;;;;;;;24.30;99.90;;;;;;5032274;28;20777;-63
2022/09/05 08:26:35;;;;;;;;;;;24.40;99.90;;;;;;5033362;28;20191;-61
2022/09/05 08:29:07;;;;;;;;;;;24.70;99.90;;;;;;5032813;28;20605;-65
2022/09/05 08:31:37;;;;;;;;;;;25.00;99.90;;;;;;5032528;28;20198;-63
2022/09/05 08:34:12;;;;;;;;;;;25.10;99.90;;;;;;5032289;28;20245;-65
2022/09/05 08:36:41;;;;;;;;;;;25.30;99.90;;;;;;5029907;28;20187;-62
2022/09/05 08:39:11;;;;;;;;;;;25.40;99.90;;;;;;5032431;28;20202;-63
2022/09/05 08:41:45;;;;;;;;;;;25.60;99.90;;;;;;5025481;28;20524;-62
2022/09/05 08:44:22;;;;;;;;;;;25.70;99.90;;;;;;5032550;28;20226;-65
2022/09/05 08:47:17;;;;;;;;;;;25.60;99.90;;;;;;5032049;28;20268;-65
2022/09/05 08:49:51;;;;;;;;;;;25.80;99.90;;;;;;5032371;28;20655;-63
2022/09/05 08:52:26;;;;;;;;;;;26.00;99.90;;;;;;5033402;28;20201;-63
2022/09/05 08:54:58;;;;;;;;;;;26.20;99.90;;;;;;5032127;28;20199;-61
2022/09/05 08:57:53;;;;;;;;;;;26.50;99.90;;;;;;5033297;28;20253;-63
2022/09/05 09:00:21;;;;;;;;;;;26.50;99.90;;;;;;5030934;28;20705;-63
2022/09/05 09:03:05;;;;;;;;;;;26.90;99.90;;;;;;5032075;28;20218;-63
2022/09/05 09:05:50;;;;;;;;;;;27.20;99.90;;;;;;5031802;28;20527;-63
2022/09/05 09:08:44;;;;;;;;;;;27.30;99.90;;;;;;5023973;28;20744;-63
2022/09/05 09:11:14;;;;;;;;;;;27.30;99.90;;;;;;5032561;28;20659;-64
2022/09/05 09:13:51;;;;;;;;;;;27.40;99.90;;;;;;5032220;28;20927;-63
2022/09/05 09:16:26;;;;;;;;;;;27.70;99.90;;;;;;5063491;22;20207;-63
2022/09/05 09:19:05;;;;;;;;;;;27.80;99.90;;;;;;5047379;28;20601;-63
2022/09/05 09:21:39;;;;;;;;;;;27.90;99.90;;;;;;5043212;28;20213;-64
2022/09/05 09:24:12;;;;;;;;;;;27.70;99.90;;;;;;5047294;28;20186;-63
2022/09/05 09:26:42;;;;;;;;;;;27.50;99.90;;;;;;5043537;28;20216;-63
2022/09/05 09:29:12;;;;;;;;;;;27.70;99.90;;;;;;5049041;28;20194;-63
2022/09/05 09:31:55;;;;;;;;;;;28.10;99.90;;;;;;5052266;28;20205;-63
2022/09/05 09:34:36;;;;;;;;;;;28.20;99.20;;;;;;5050512;28;20193;-63
2022/09/05 09:37:24;;;;;;;;;;;28.50;99.00;;;;;;5049499;28;20194;-63
2022/09/05 09:40:22;;;;;;;;;;;28.50;98.40;;;;;;5032006;28;20199;-63
2022/09/05 09:42:50;;;;;;;;;;;28.40;98.90;;;;;;5045330;28;20210;-63
2022/09/05 09:45:28;;;;;;;;;;;28.50;99.30;;;;;;5052192;28;20206;-63
2022/09/05 09:48:05;;;;;;;;;;;28.60;98.90;;;;;;5046764;28;20528;-63
2022/09/05 09:50:41;;;;;;;;;;;28.80;98.70;;;;;;5050299;28;20555;-64
2022/09/05 09:53:34;;;;;;;;;;;29.20;97.90;;;;;;5046493;28;20187;-63
2022/09/05 09:56:12;;;;;;;;;;;29.00;97.70;;;;;;5051795;28;20687;-63
2022/09/05 09:58:48;;;;;;;;;;;28.80;97.30;;;;;;5050842;28;20186;-63
2022/09/05 10:01:24;;;;;;;;;;;28.30;97.80;;;;;;5051534;28;20190;-63
2022/09/05 10:04:22;;;;;;;;;;;28.00;98.00;;;;;;5050925;28;20599;-63
2022/09/05 10:07:24;;;;;;;;;;;27.70;98.80;;;;;;5047808;28;20252;-63
2022/09/05 10:10:21;;;;;;;;;;;27.80;98.50;;;;;;5035672;28;20273;-63
2022/09/05 10:13:22;;;;;;;;;;;28.10;98.50;;;;;;5049914;28;20548;-63
2022/09/05 10:16:22;;;;;;;;;;;28.50;97.40;;;;;;5045111;28;20218;-63
2022/09/05 10:18:59;;;;;;;;;;;28.80;97.30;;;;;;5034339;28;21145;-63
2022/09/05 10:21:36;;;;;;;;;;;29.20;97.30;;;;;;5048633;28;20252;-63
2022/09/05 10:24:18;;;;;;;;;;;29.60;96.50;;;;;;5045594;28;20256;-64
2022/09/05 10:27:03;;;;;;;;;;;30.10;95.90;;;;;;5041426;28;20205;-64
2022/09/05 10:29:52;;;;;;;;;;;30.50;95.90;;;;;;5048321;28;20198;-64
2022/09/05 10:32:23;;;;;;;;;;;30.70;95.20;;;;;;5046486;28;20199;-64
2022/09/05 10:35:17;;;;;;;;;;;30.60;94.80;;;;;;5050036;28;20190;-63
2022/09/05 10:37:53;;;;;;;;;;;30.90;94.80;;;;;;5051236;28;20190;-64
2022/09/05 10:40:22;;;;;;;;;;;30.90;94.60;;;;;;5036854;28;20824;-64
2022/09/05 10:42:51;;;;;;;;;;;31.10;93.90;;;;;;5051112;28;20183;-64
2022/09/05 10:45:30;;;;;;;;;;;31.30;93.60;;;;;;5049712;28;20592;-64
2022/09/05 10:48:10;;;;;;;;;;;31.60;93.40;;;;;;5050200;28;20200;-64
2022/09/05 10:50:43;;;;;;;;;;;31.90;92.70;;;;;;5050644;28;20194;-64
2022/09/05 10:53:32;;;;;;;;;;;32.20;92.70;;;;;;5050620;28;20263;-64
2022/09/05 10:56:11;;;;;;;;;;;32.30;92.10;;;;;;5048354;28;20762;-64
2022/09/05 10:58:42;;;;;;;;;;;32.40;91.70;;;;;;5053226;28;20687;-64
2022/09/05 11:01:32;;;;;;;;;;;32.60;91.00;;;;;;5049141;28;20190;-64
2022/09/05 11:04:27;;;;;;;;;;;32.20;91.50;;;;;;5055030;28;20565;-64
2022/09/05 11:07:02;;;;;;;;;;;32.00;91.70;;;;;;5050342;28;20194;-64
2022/09/05 11:09:43;;;;;;;;;;;32.20;91.80;;;;;;5054745;28;20194;-64
2022/09/05 11:12:21;;;;;;;;;;;32.50;90.90;;;;;;5052816;28;20639;-64
2022/09/05 11:14:51;;;;;;;;;;;32.80;90.60;;;;;;5053409;28;20182;-64
2022/09/05 11:17:26;;;;;;;;;;;32.70;90.50;;;;;;5054172;28;20206;-64
2022/09/05 11:19:59;;;;;;;;;;;32.60;90.40;;;;;;5053361;28;20256;-64
2022/09/05 11:22:29;;;;;;;;;;;32.80;90.50;;;;;;5053203;28;20191;-64
2022/09/05 11:24:59;;;;;;;;;;;32.70;89.00;;;;;;5053945;28;20655;-64
2022/09/05 11:27:29;;;;;;;;;;;33.10;90.00;;;;;;5052636;28;20723;-64
2022/09/05 11:29:59;;;;;;;;;;;33.10;88.90;;;;;;5053702;28;20583;-66
2022/09/05 11:32:36;;;;;;;;;;;33.00;88.80;;;;;;5049770;28;20191;-64
2022/09/05 11:35:26;;;;;;;;;;;32.70;88.30;;;;;;5045444;28;20202;-64
2022/09/05 11:38:30;;;;;;;;;;;32.30;88.70;;;;;;5053595;28;20259;-64
2022/09/05 11:41:37;;;;;;;;;;;32.20;89.10;;;;;;5050848;28;20194;-64
2022/09/05 11:44:26;;;;;;;;;;;32.70;89.10;;;;;;5052604;28;20302;-64
2022/09/05 11:47:04;;;;;;;;;;;32.80;87.90;;;;;;5036290;28;20222;-62
2022/09/05 11:50:07;;;;;;;;;;;33.00;88.40;;;;;;5047848;28;20248;-64
2022/09/05 11:52:53;;;;;;;;;;;33.40;87.20;;;;;;5051416;28;20246;-65
2022/09/05 11:55:32;;;;;;;;;;;33.70;86.60;;;;;;5054163;28;20221;-64
2022/09/05 11:58:07;;;;;;;;;;;33.60;85.10;;;;;;5053036;28;20162;-64
2022/09/05 12:00:59;;;;;;;;;;;33.20;85.40;;;;;;5048190;28;20209;-64
2022/09/05 12:04:01;;;;;;;;;;;32.90;85.70;;;;;;5045137;28;20197;-64
2022/09/05 12:07:00;;;;;;;;;;;33.30;85.10;;;;;;5049678;28;20205;-64
2022/09/05 12:09:36;;;;;;;;;;;33.90;85.50;;;;;;5050282;28;20231;-64
2022/09/05 12:12:10;;;;;;;;;;;34.00;83.20;;;;;;5052401;28;20301;-64
2022/09/05 12:15:11;;;;;;;;;;;33.80;82.30;;;;;;5052817;28;20207;-64
2022/09/05 12:17:45;;;;;;;;;;;34.00;83.70;;;;;;5004105;28;20169;-64
2022/09/05 12:20:15;;;;;;;;;;;33.90;82.20;;;;;;5013882;28;20199;-64
2022/09/05 12:22:53;;;;;;;;;;;33.70;83.00;;;;;;5005717;28;20198;-64
2022/09/05 12:25:38;;;;;;;;;;;33.40;81.40;;;;;;5012812;28;20628;-64
2022/09/05 12:28:31;;;;;;;;;;;33.50;82.40;;;;;;5012854;28;20261;-64
2022/09/05 12:31:21;;;;;;;;;;;33.50;81.80;;;;;;5012617;28;20686;-64
2022/09/05 12:34:12;;;;;;;;;;;33.90;80.40;;;;;;5013623;28;20718;-64
2022/09/05 12:37:02;;;;;;;;;;;33.90;79.40;;;;;;4999824;28;20263;-65
2022/09/05 12:39:53;;;;;;;;;;;34.30;81.20;;;;;;5007270;28;20166;-64
2022/09/05 12:42:42;;;;;;;;;;;34.80;79.40;;;;;;5013747;28;20244;-64
2022/09/05 12:45:39;;;;;;;;;;;34.60;78.70;;;;;;5012708;28;20231;-65
2022/09/05 12:48:10;;;;;;;;;;;34.50;79.20;;;;;;5012119;28;20170;-64
2022/09/05 12:50:42;;;;;;;;;;;34.30;76.10;;;;;;5013294;28;20185;-64
2022/09/05 12:53:12;;;;;;;;;;;34.80;77.10;;;;;;5008122;28;20183;-64
2022/09/05 12:55:41;;;;;;;;;;;35.10;75.50;;;;;;5005682;28;20199;-65
2022/09/05 12:58:31;;;;;;;;;;;35.20;74.50;;;;;;5011038;28;20167;-64
2022/09/05 13:01:23;;;;;;;;;;;35.50;74.30;;;;;;5010935;28;20728;-64
2022/09/05 13:04:17;;;;;;;;;;;35.10;75.10;;;;;;5013173;28;20206;-64
2022/09/05 13:06:56;;;;;;;;;;;35.40;75.30;;;;;;5004129;28;20281;-64
2022/09/05 13:09:25;;;;;;;;;;;35.00;76.20;;;;;;5010223;28;20169;-64
2022/09/05 13:12:15;;;;;;;;;;;34.90;74.50;;;;;;5013275;28;20173;-64
2022/09/05 13:15:05;;;;;;;;;;;35.00;74.50;;;;;;4994829;28;20225;-65
2022/09/05 13:17:53;;;;;;;;;;;35.20;74.10;;;;;;5007079;28;20177;-64
2022/09/05 13:20:32;;;;;;;;;;;35.00;73.60;;;;;;5012815;28;20177;-64
2022/09/05 13:23:01;;;;;;;;;;;35.00;73.60;;;;;;5012278;28;20207;-64
2022/09/05 13:25:29;;;;;;;;;;;35.40;73.50;;;;;;5012982;28;20176;-65
2022/09/05 13:28:00;;;;;;;;;;;35.70;73.30;;;;;;5010686;28;20235;-64
2022/09/05 13:30:28;;;;;;;;;;;36.10;73.10;;;;;;5012776;28;20204;-64
2022/09/05 13:33:22;;;;;;;;;;;36.50;68.80;;;;;;5011307;28;20184;-64
2022/09/05 13:36:11;;;;;;;;;;;37.10;68.20;;;;;;5011627;28;20199;-64
2022/09/05 13:39:02;;;;;;;;;;;37.30;67.10;;;;;;5007794;28;20213;-65
2022/09/05 13:41:34;;;;;;;;;;;37.60;66.80;;;;;;5008535;28;20210;-64
2022/09/05 13:44:09;;;;;;;;;;;37.90;66.70;;;;;;5003699;28;20192;-64
2022/09/05 13:46:57;;;;;;;;;;;37.40;67.70;;;;;;5008374;28;20859;-64
2022/09/05 13:49:29;;;;;;;;;;;37.70;67.70;;;;;;5009998;28;20185;-65
2022/09/05 13:52:07;;;;;;;;;;;37.90;67.50;;;;;;5009011;28;20180;-65
2022/09/05 13:54:41;;;;;;;;;;;38.00;67.90;;;;;;5012212;28;20172;-65
2022/09/05 13:57:23;;;;;;;;;;;38.00;67.20;;;;;;5008028;28;20228;-65
2022/09/05 14:00:18;;;;;;;;;;;38.10;67.40;;;;;;5010568;28;20188;-65
2022/09/05 14:03:11;;;;;;;;;;;37.90;66.90;;;;;;5009720;28;20196;-65
2022/09/05 14:06:06;;;;;;;;;;;37.60;67.40;;;;;;5006970;28;20563;-64
2022/09/05 14:09:03;;;;;;;;;;;37.50;67.10;;;;;;5011344;28;20190;-64
2022/09/05 14:11:56;;;;;;;;;;;37.00;66.60;;;;;;5005911;28;20213;-64
2022/09/05 14:14:25;;;;;;;;;;;36.60;66.70;;;;;;5011083;28;20191;-64
2022/09/05 14:17:28;;;;;;;;;;;36.70;67.40;;;;;;5044169;28;21305;-64
2022/09/05 14:23:19;;;;;;;;;;;37.30;67.40;;;;;;5009324;28;20192;-64
2022/09/05 14:25:49;;;;;;;;;;;37.50;66.60;;;;;;5022519;28;20193;-64
2022/09/05 14:28:22;;;;;;;;;;;37.50;65.60;;;;;;5030701;28;20700;-65
2022/09/05 14:30:52;;;;;;;;;;;37.40;65.80;;;;;;5051355;28;20527;-64
2022/09/05 14:33:48;;;;;;;;;;;37.50;66.10;;;;;;5039057;28;20208;-64
2022/09/05 14:36:42;;;;;;;;;;;37.30;65.90;;;;;;5048443;28;20282;-65
2022/09/05 14:39:42;;;;;;;;;;;37.30;65.00;;;;;;5051263;28;20238;-64
2022/09/05 14:42:22;;;;;;;;;;;37.50;65.70;;;;;;5050196;28;20584;-64
2022/09/05 14:45:05;;;;;;;;;;;37.50;64.60;;;;;;5049801;28;20288;-64
2022/09/05 14:48:00;;;;;;;;;;;37.50;63.60;;;;;;5045019;28;20197;-65
2022/09/05 14:50:48;;;;;;;;;;;37.70;64.00;;;;;;5016167;28;20293;-64
2022/09/05 14:53:17;;;;;;;;;;;37.60;63.10;;;;;;5044710;28;20183;-64
2022/09/05 14:56:09;;;;;;;;;;;37.30;63.10;;;;;;5049609;28;20623;-64
2022/09/05 14:59:08;;;;;;;;;;;37.10;62.20;;;;;;5051035;28;20681;-64
2022/09/05 15:02:01;;;;;;;;;;;37.10;61.50;;;;;;5048770;28;20175;-64
2022/09/05 15:04:53;;;;;;;;;;;36.80;60.90;;;;;;5031144;28;20267;-64
2022/09/05 15:07:24;;;;;;;;;;;36.50;62.30;;;;;;5039649;28;20599;-64
2022/09/05 15:10:24;;;;;;;;;;;36.50;62.50;;;;;;5048729;28;20183;-64
2022/09/05 15:13:14;;;;;;;;;;;36.00;62.70;;;;;;5031312;28;20201;-64
2022/09/05 15:15:57;;;;;;;;;;;36.10;62.20;;;;;;5042893;28;20215;-64
2022/09/05 15:18:31;;;;;;;;;;;36.00;62.30;;;;;;4966188;28;20213;-66
2022/09/05 15:21:17;;;;;;;;;;;36.00;62.10;;;;;;4952146;28;20183;-66
2022/09/05 15:24:03;;;;;;;;;;;36.00;62.00;;;;;;4953015;28;20238;-67
2022/09/05 15:26:46;;;;;;;;;;;36.20;61.30;;;;;;4968020;28;20289;-66
2022/09/05 15:29:19;;;;;;;;;;;36.10;60.90;;;;;;4959523;28;20236;-67
2022/09/05 15:31:47;;;;;;;;;;;35.80;60.80;;;;;;4964992;28;20197;-67
2022/09/05 15:34:35;;;;;;;;;;;35.50;61.00;;;;;;4971761;28;20230;-66
2022/09/05 15:37:20;;;;;;;;;;;35.30;61.10;;;;;;4969548;28;21009;-66
2022/09/05 15:39:59;;;;;;;;;;;35.40;59.90;;;;;;4966940;28;20646;-66
2022/09/05 15:42:29;;;;;;;;;;;35.20;60.00;;;;;;4975089;28;20239;-65